Time;durP1;ratioP1;P1;durP2;ratioP2;P2;SDS_P1;SDS_P2;PMS_P1;PMS_P2;Temp;Humidity;BMP_temperature;BMP_pressure;BME280_temperature;BME280_humidity;BME280_pressure;Samples;Min_cycle;Max_cycle;Signal;HPM_P1;HPM_P2
2021/03/08 00:01:32;;;;;;;10.60;8.50;;;;;;;;;;4975451;28;20787;-75
2021/03/08 00:03:58;;;;;;;10.80;8.17;;;;;;;;;;4989876;28;20454;-79
2021/03/08 00:06:24;;;;;;;11.90;8.80;;;;;;;;;;4972176;28;20438;-76
2021/03/08 00:08:50;;;;;;;11.47;8.60;;;;;;;;;;4991664;28;20972;-75
2021/03/08 00:11:16;;;;;;;11.93;8.82;;;;;;;;;;4994380;28;20423;-74
2021/03/08 00:13:42;;;;;;;14.90;10.20;;;;;;;;;;4978892;28;20184;-75
2021/03/08 00:16:08;;;;;;;10.47;8.43;;;;;;;;;;4952393;28;20454;-74
2021/03/08 00:18:34;;;;;;;10.03;8.53;;;;;;;;;;4990665;28;20508;-75
2021/03/08 00:21:00;;;;;;;12.60;9.63;;;;;;;;;;4994331;28;20426;-75
2021/03/08 00:23:26;;;;;;;11.93;9.10;;;;;;;;;;4992984;28;20536;-74
2021/03/08 00:25:52;;;;;;;12.85;8.98;;;;;;;;;;4994177;28;20432;-77
2021/03/08 00:28:18;;;;;;;12.10;9.30;;;;;;;;;;4972762;28;20617;-76
2021/03/08 00:30:44;;;;;;;13.13;10.30;;;;;;;;;;4975042;28;20421;-75
2021/03/08 00:33:10;;;;;;;11.75;8.73;;;;;;;;;;4967902;28;20449;-76
2021/03/08 00:35:36;;;;;;;11.60;10.30;;;;;;;;;;4979739;28;20463;-74
2021/03/08 00:38:02;;;;;;;10.23;8.95;;;;;;;;;;4970325;28;21044;-73
2021/03/08 00:40:28;;;;;;;11.95;9.90;;;;;;;;;;4994070;28;20265;-75
2021/03/08 00:42:54;;;;;;;12.47;9.80;;;;;;;;;;4982426;28;20285;-73
2021/03/08 00:45:21;;;;;;;13.38;9.68;;;;;;;;;;4974711;28;20474;-74
2021/03/08 00:47:47;;;;;;;11.40;8.95;;;;;;;;;;4980242;28;20241;-77
2021/03/08 00:50:22;;;;;;;13.75;10.32;;;;;;;;;;4958226;28;20187;-74
2021/03/08 00:52:48;;;;;;;14.68;9.55;;;;;;;;;;4971294;28;20662;-75
2021/03/08 00:55:14;;;;;;;13.18;8.23;;;;;;;;;;4973835;28;20293;-74
2021/03/08 00:57:40;;;;;;;11.15;8.85;;;;;;;;;;4975582;28;20268;-74
2021/03/08 01:00:07;;;;;;;11.05;8.40;;;;;;;;;;4974380;28;20187;-74
2021/03/08 01:02:33;;;;;;;12.57;9.40;;;;;;;;;;4983880;28;20182;-75
2021/03/08 01:04:59;;;;;;;11.38;8.60;;;;;;;;;;4993852;28;20254;-73
2021/03/08 01:07:25;;;;;;;11.03;8.80;;;;;;;;;;4975458;28;20297;-76
2021/03/08 01:09:51;;;;;;;10.60;8.60;;;;;;;;;;4973360;28;20454;-73
2021/03/08 01:12:17;;;;;;;12.70;8.03;;;;;;;;;;4976166;28;20785;-73
2021/03/08 01:14:43;;;;;;;10.30;8.10;;;;;;;;;;4993758;28;20432;-73
2021/03/08 01:17:09;;;;;;;10.00;8.07;;;;;;;;;;4988094;28;20540;-73
2021/03/08 01:19:35;;;;;;;9.57;8.45;;;;;;;;;;4973966;28;20439;-73
2021/03/08 01:22:01;;;;;;;10.80;8.80;;;;;;;;;;4976755;28;20621;-72
2021/03/08 01:24:27;;;;;;;12.35;8.85;;;;;;;;;;4993578;28;20425;-73
2021/03/08 01:26:53;;;;;;;13.23;8.65;;;;;;;;;;4981364;28;20180;-74
2021/03/08 01:29:19;;;;;;;11.47;8.57;;;;;;;;;;4954974;28;20226;-76
2021/03/08 01:31:45;;;;;;;11.53;8.50;;;;;;;;;;4958613;28;20778;-74
2021/03/08 01:34:11;;;;;;;16.27;9.35;;;;;;;;;;4954832;29;20472;-74
2021/03/08 01:36:37;;;;;;;12.30;8.80;;;;;;;;;;4942398;28;20597;-73
2021/03/08 01:39:04;;;;;;;10.93;8.07;;;;;;;;;;4993165;28;20447;-72
2021/03/08 01:41:30;;;;;;;12.85;9.52;;;;;;;;;;4991828;28;20166;-73
2021/03/08 01:43:56;;;;;;;10.07;8.17;;;;;;;;;;4973502;28;20188;-76
2021/03/08 01:46:22;;;;;;;12.20;8.73;;;;;;;;;;4974055;28;20422;-73
2021/03/08 01:48:48;;;;;;;14.07;10.05;;;;;;;;;;4980339;28;20268;-72
2021/03/08 01:51:14;;;;;;;11.77;9.50;;;;;;;;;;4969992;28;20199;-73
2021/03/08 01:53:40;;;;;;;12.38;9.32;;;;;;;;;;4972858;28;20465;-74
2021/03/08 01:56:06;;;;;;;8.98;7.40;;;;;;;;;;4973339;28;20230;-73
2021/03/08 01:58:33;;;;;;;10.00;8.63;;;;;;;;;;4989222;28;20269;-73
2021/03/08 02:01:01;;;;;;;11.45;8.50;;;;;;;;;;4993069;28;20675;-75
2021/03/08 02:03:27;;;;;;;10.93;8.30;;;;;;;;;;4977262;28;20190;-72
2021/03/08 02:05:53;;;;;;;10.90;7.35;;;;;;;;;;4973311;28;20179;-75
2021/03/08 02:08:20;;;;;;;8.90;7.90;;;;;;;;;;4971069;28;20214;-73
2021/03/08 02:10:47;;;;;;;9.38;8.13;;;;;;;;;;4992674;28;20464;-74
2021/03/08 02:13:19;;;;;;;12.20;10.20;;;;;;;;;;4960566;28;20192;-73
2021/03/08 02:16:00;;;;;;;11.20;8.68;;;;;;;;;;4973260;28;20190;-73
2021/03/08 02:18:45;;;;;;;9.40;8.40;;;;;;;;;;4973868;28;20559;-75
2021/03/08 02:21:13;;;;;;;12.05;8.13;;;;;;;;;;4976974;28;20629;-73
2021/03/08 02:23:58;;;;;;;9.82;7.72;;;;;;;;;;4965003;28;20684;-73
2021/03/08 02:26:27;;;;;;;9.20;7.32;;;;;;;;;;4978168;28;20216;-73
2021/03/08 02:29:09;;;;;;;9.80;7.10;;;;;;;;;;4992754;28;20220;-74
2021/03/08 02:31:35;;;;;;;8.88;6.80;;;;;;;;;;4992607;28;20180;-74
2021/03/08 02:34:07;;;;;;;11.63;8.25;;;;;;;;;;4958208;29;20317;-74
2021/03/08 02:36:36;;;;;;;11.85;7.55;;;;;;;;;;4967841;28;20238;-72
2021/03/08 02:39:23;;;;;;;10.70;8.85;;;;;;;;;;4996720;28;20225;-74
2021/03/08 02:41:52;;;;;;;8.77;7.95;;;;;;;;;;4989233;28;20182;-74
2021/03/08 02:44:19;;;;;;;9.45;8.30;;;;;;;;;;4976870;28;20191;-74
2021/03/08 02:46:46;;;;;;;10.07;8.95;;;;;;;;;;4977782;28;20296;-74
2021/03/08 02:49:14;;;;;;;12.15;9.10;;;;;;;;;;4996416;28;20293;-73
2021/03/08 02:51:43;;;;;;;11.63;9.30;;;;;;;;;;4978605;28;20624;-74
2021/03/08 02:54:10;;;;;;;11.85;8.48;;;;;;;;;;4977164;28;20182;-73
2021/03/08 02:56:38;;;;;;;11.57;9.10;;;;;;;;;;4986043;28;20228;-73
2021/03/08 02:59:05;;;;;;;10.10;8.80;;;;;;;;;;4996526;28;20193;-74
2021/03/08 03:01:33;;;;;;;10.25;9.07;;;;;;;;;;4984959;28;20170;-73
2021/03/08 03:04:00;;;;;;;14.07;9.45;;;;;;;;;;4976609;28;20235;-73
2021/03/08 03:06:28;;;;;;;12.23;9.70;;;;;;;;;;4990035;28;20208;-75
2021/03/08 03:08:54;;;;;;;12.70;9.77;;;;;;;;;;4985482;28;20224;-74
2021/03/08 03:11:21;;;;;;;12.48;10.13;;;;;;;;;;4977254;28;20215;-74
2021/03/08 03:13:48;;;;;;;11.43;9.52;;;;;;;;;;4976599;28;20189;-74
2021/03/08 03:16:15;;;;;;;12.23;9.18;;;;;;;;;;4987327;28;20204;-75
2021/03/08 03:18:45;;;;;;;13.02;9.25;;;;;;;;;;4996021;28;20181;-74
2021/03/08 03:21:11;;;;;;;11.35;9.05;;;;;;;;;;4967705;28;20324;-74
2021/03/08 03:23:38;;;;;;;12.32;9.05;;;;;;;;;;4976053;28;20187;-75
2021/03/08 03:26:06;;;;;;;12.40;9.23;;;;;;;;;;4966853;28;20192;-74
2021/03/08 03:28:32;;;;;;;13.55;9.88;;;;;;;;;;4976254;28;20304;-74
2021/03/08 03:30:58;;;;;;;13.50;8.80;;;;;;;;;;4992329;28;20181;-73
2021/03/08 03:33:24;;;;;;;10.25;8.70;;;;;;;;;;4995916;28;20180;-74
2021/03/08 03:35:50;;;;;;;13.57;9.45;;;;;;;;;;4979840;28;20183;-76
2021/03/08 03:38:19;;;;;;;12.80;9.93;;;;;;;;;;4976131;28;20182;-73
2021/03/08 03:40:45;;;;;;;14.63;8.93;;;;;;;;;;4976714;28;20268;-73
2021/03/08 03:43:11;;;;;;;12.83;8.70;;;;;;;;;;4976050;28;20658;-75
2021/03/08 03:45:37;;;;;;;12.02;8.77;;;;;;;;;;4988015;28;20513;-73
2021/03/08 03:48:03;;;;;;;13.43;8.93;;;;;;;;;;4991364;28;20221;-72
2021/03/08 03:50:29;;;;;;;9.50;8.48;;;;;;;;;;4968848;28;20528;-75
2021/03/08 03:52:55;;;;;;;12.50;9.27;;;;;;;;;;4993042;28;20208;-75
2021/03/08 03:55:23;;;;;;;11.48;8.40;;;;;;;;;;4976042;28;20233;-74
2021/03/08 03:57:52;;;;;;;17.85;9.70;;;;;;;;;;4975658;28;20185;-76
2021/03/08 04:00:19;;;;;;;14.48;9.68;;;;;;;;;;4983279;28;20190;-75
2021/03/08 04:02:51;;;;;;;14.77;11.15;;;;;;;;;;4995014;28;20169;-75
2021/03/08 04:05:20;;;;;;;12.82;9.95;;;;;;;;;;4988403;28;20194;-74
2021/03/08 04:07:47;;;;;;;13.02;9.57;;;;;;;;;;4975273;28;20633;-74
2021/03/08 04:10:13;;;;;;;14.77;10.60;;;;;;;;;;4980713;28;20188;-74
2021/03/08 04:12:42;;;;;;;13.02;10.55;;;;;;;;;;4982622;28;20194;-75
2021/03/08 04:15:09;;;;;;;12.00;9.30;;;;;;;;;;4972759;28;20530;-75
2021/03/08 04:17:36;;;;;;;9.98;8.77;;;;;;;;;;4985740;28;20225;-74
2021/03/08 04:20:03;;;;;;;17.48;9.75;;;;;;;;;;4979005;28;20176;-73
2021/03/08 04:22:31;;;;;;;17.10;10.27;;;;;;;;;;4975099;28;20182;-74
2021/03/08 04:24:58;;;;;;;12.93;8.57;;;;;;;;;;4980822;28;20529;-75
2021/03/08 04:27:25;;;;;;;12.95;11.20;;;;;;;;;;4986053;28;20244;-75
2021/03/08 04:29:52;;;;;;;12.15;9.75;;;;;;;;;;4976147;28;20190;-73
2021/03/08 04:32:18;;;;;;;15.82;10.52;;;;;;;;;;4975149;28;20251;-75
2021/03/08 04:34:46;;;;;;;13.98;9.75;;;;;;;;;;4975107;28;20215;-74
2021/03/08 04:37:13;;;;;;;11.57;9.15;;;;;;;;;;4994426;28;20519;-73
2021/03/08 04:39:40;;;;;;;13.90;9.30;;;;;;;;;;4992839;28;20176;-73
2021/03/08 04:42:07;;;;;;;14.20;10.00;;;;;;;;;;4980807;28;20199;-73
2021/03/08 04:44:34;;;;;;;17.92;10.20;;;;;;;;;;4960076;28;20195;-73
2021/03/08 04:47:02;;;;;;;15.63;9.32;;;;;;;;;;4991484;28;20211;-74
2021/03/08 04:49:28;;;;;;;13.90;10.75;;;;;;;;;;4987267;28;20217;-75
2021/03/08 04:51:54;;;;;;;12.25;9.68;;;;;;;;;;4976148;28;20187;-74
2021/03/08 04:54:20;;;;;;;13.13;9.85;;;;;;;;;;4987667;28;20244;-75
2021/03/08 04:56:47;;;;;;;15.65;10.98;;;;;;;;;;4979007;28;20272;-74
2021/03/08 04:59:14;;;;;;;10.05;8.88;;;;;;;;;;4983297;28;20185;-74
2021/03/08 05:01:42;;;;;;;16.15;10.70;;;;;;;;;;4978026;28;20240;-75
2021/03/08 05:04:08;;;;;;;13.93;11.50;;;;;;;;;;4973770;28;20177;-76
2021/03/08 05:09:11;;;;;;;14.98;10.25;;;;;;;;;;5233490;23;20323;-75
2021/03/08 05:11:38;;;;;;;16.38;11.63;;;;;;;;;;4963525;28;20209;-78
2021/03/08 05:14:06;;;;;;;12.40;10.15;;;;;;;;;;4974208;28;20305;-77
2021/03/08 05:16:32;;;;;;;14.77;10.38;;;;;;;;;;4954711;29;20165;-76
2021/03/08 05:19:04;;;;;;;16.77;11.65;;;;;;;;;;4954852;29;20182;-76
2021/03/08 05:21:30;;;;;;;14.30;12.07;;;;;;;;;;4954474;29;20179;-78
2021/03/08 05:23:57;;;;;;;16.20;10.63;;;;;;;;;;4953919;29;20182;-74
2021/03/08 05:26:24;;;;;;;18.85;11.70;;;;;;;;;;4955417;28;20175;-75
2021/03/08 05:28:51;;;;;;;13.50;10.60;;;;;;;;;;4973797;28;20210;-76
2021/03/08 05:31:17;;;;;;;13.60;10.40;;;;;;;;;;4974074;28;20189;-75
2021/03/08 05:33:45;;;;;;;14.98;10.90;;;;;;;;;;4973968;28;20173;-76
2021/03/08 05:36:12;;;;;;;19.45;11.90;;;;;;;;;;4973823;28;20158;-76
2021/03/08 05:38:40;;;;;;;16.38;12.43;;;;;;;;;;4973502;28;20192;-76
2021/03/08 05:41:27;;;;;;;14.07;11.45;;;;;;;;;;4973702;28;20167;-76
2021/03/08 05:43:57;;;;;;;15.35;11.40;;;;;;;;;;4973746;28;20179;-78
2021/03/08 05:46:23;;;;;;;16.75;12.05;;;;;;;;;;4973883;28;20166;-76
2021/03/08 05:48:51;;;;;;;19.00;11.80;;;;;;;;;;4973589;28;20266;-76
2021/03/08 05:51:36;;;;;;;16.02;11.40;;;;;;;;;;4973764;28;20412;-76
2021/03/08 05:54:01;;;;;;;19.05;11.45;;;;;;;;;;4973302;28;20230;-77
2021/03/08 05:56:46;;;;;;;16.00;11.00;;;;;;;;;;4973671;28;20252;-76
2021/03/08 05:59:22;;;;;;;16.75;12.55;;;;;;;;;;4973759;28;20435;-75
2021/03/08 06:02:07;;;;;;;14.40;11.00;;;;;;;;;;4959538;28;20605;-76
2021/03/08 06:04:33;;;;;;;15.25;11.93;;;;;;;;;;4967439;28;20234;-74
2021/03/08 06:07:17;;;;;;;14.50;11.40;;;;;;;;;;4976262;28;20751;-76
2021/03/08 06:09:47;;;;;;;15.18;11.02;;;;;;;;;;4975989;28;20567;-75
2021/03/08 06:12:18;;;;;;;13.45;11.65;;;;;;;;;;4976514;28;20187;-75
2021/03/08 06:14:48;;;;;;;20.23;13.63;;;;;;;;;;4976528;28;20643;-77
2021/03/08 06:17:15;;;;;;;15.68;13.23;;;;;;;;;;4976671;28;20168;-77
2021/03/08 06:19:42;;;;;;;17.98;13.02;;;;;;;;;;4965731;28;20177;-77
2021/03/08 06:22:09;;;;;;;16.25;11.73;;;;;;;;;;4957169;29;20176;-76
2021/03/08 06:24:42;;;;;;;15.68;11.88;;;;;;;;;;4955275;29;20203;-76
2021/03/08 06:27:09;;;;;;;14.98;12.40;;;;;;;;;;4956963;29;20183;-77
2021/03/08 06:29:36;;;;;;;16.75;12.93;;;;;;;;;;4956830;29;20565;-75
2021/03/08 06:32:03;;;;;;;17.77;13.13;;;;;;;;;;4957236;29;20183;-75
2021/03/08 06:34:29;;;;;;;15.52;12.52;;;;;;;;;;4956937;29;20534;-75
2021/03/08 06:36:55;;;;;;;16.10;12.18;;;;;;;;;;4964105;28;20240;-76
2021/03/08 06:39:21;;;;;;;17.40;13.50;;;;;;;;;;4977888;28;20209;-77
2021/03/08 06:41:47;;;;;;;21.58;14.85;;;;;;;;;;4977658;28;20185;-75
2021/03/08 06:44:14;;;;;;;20.77;15.00;;;;;;;;;;4977876;28;20241;-75
2021/03/08 06:46:40;;;;;;;19.63;14.93;;;;;;;;;;4977349;28;20258;-75
2021/03/08 06:49:07;;;;;;;18.13;15.02;;;;;;;;;;4976821;28;20625;-75
2021/03/08 06:51:33;;;;;;;20.15;14.25;;;;;;;;;;4976335;28;20515;-74
2021/03/08 06:53:59;;;;;;;16.73;12.77;;;;;;;;;;4975849;28;20190;-75
2021/03/08 06:56:25;;;;;;;16.63;13.15;;;;;;;;;;4963453;28;20442;-76
2021/03/08 06:59:08;;;;;;;18.33;12.65;;;;;;;;;;4956777;29;20583;-73
2021/03/08 07:01:39;;;;;;;16.25;14.18;;;;;;;;;;4957222;29;20665;-74
2021/03/08 07:04:11;;;;;;;19.92;14.00;;;;;;;;;;4957978;28;20652;-74
2021/03/08 07:06:37;;;;;;;16.48;12.15;;;;;;;;;;4976907;28;20209;-75
2021/03/08 07:09:08;;;;;;;18.80;13.18;;;;;;;;;;4984104;28;20265;-75
2021/03/08 07:11:34;;;;;;;15.70;12.20;;;;;;;;;;4996038;28;20181;-75
2021/03/08 07:14:00;;;;;;;18.13;13.55;;;;;;;;;;4995934;28;20179;-73
2021/03/08 07:16:38;;;;;;;16.85;13.48;;;;;;;;;;4995758;28;20651;-74
2021/03/08 07:19:06;;;;;;;13.70;11.10;;;;;;;;;;4996135;28;20258;-76
2021/03/08 07:21:33;;;;;;;21.40;12.60;;;;;;;;;;4979206;28;20179;-76
2021/03/08 07:24:18;;;;;;;18.40;12.60;;;;;;;;;;4975817;28;20420;-75
2021/03/08 07:26:54;;;;;;;21.95;12.75;;;;;;;;;;4976168;28;20160;-79
2021/03/08 07:29:21;;;;;;;18.48;12.13;;;;;;;;;;4976053;28;20232;-74
2021/03/08 07:31:51;;;;;;;16.30;11.85;;;;;;;;;;4976162;28;20259;-73
2021/03/08 07:34:17;;;;;;;18.63;13.35;;;;;;;;;;4976107;28;20183;-75
2021/03/08 07:36:45;;;;;;;16.05;12.20;;;;;;;;;;4975989;28;20219;-75
2021/03/08 07:39:11;;;;;;;14.05;11.45;;;;;;;;;;4975614;28;20208;-73
2021/03/08 07:41:50;;;;;;;15.07;12.05;;;;;;;;;;4976898;28;20193;-74
2021/03/08 07:44:16;;;;;;;18.23;11.77;;;;;;;;;;4956434;29;20190;-76
2021/03/08 07:46:42;;;;;;;14.97;12.57;;;;;;;;;;4952529;28;20637;-77
2021/03/08 07:49:08;;;;;;;14.73;12.93;;;;;;;;;;4975251;28;20514;-76
2021/03/08 07:51:34;;;;;;;18.88;11.82;;;;;;;;;;4975555;28;20500;-77
2021/03/08 07:54:01;;;;;;;14.10;11.23;;;;;;;;;;4974075;28;20224;-82
2021/03/08 07:56:28;;;;;;;17.20;14.10;;;;;;;;;;4975408;28;20537;-84
2021/03/08 07:58:54;;;;;;;16.60;14.07;;;;;;;;;;4974936;28;20434;-79
2021/03/08 08:01:21;;;;;;;17.83;13.10;;;;;;;;;;4973284;28;20427;-78
2021/03/08 08:03:47;;;;;;;14.87;13.27;;;;;;;;;;4965700;28;20451;-78
2021/03/08 08:06:13;;;;;;;16.47;12.93;;;;;;;;;;4971716;28;20462;-78
2021/03/08 08:08:44;;;;;;;17.10;13.67;;;;;;;;;;4970760;28;20495;-78
2021/03/08 08:11:09;;;;;;;18.53;14.10;;;;;;;;;;4970523;28;20450;-78
2021/03/08 08:13:46;;;;;;;16.80;13.97;;;;;;;;;;4970836;28;20458;-76
2021/03/08 08:16:12;;;;;;;15.13;11.93;;;;;;;;;;4971422;28;20464;-81
2021/03/08 08:18:42;;;;;;;16.00;11.70;;;;;;;;;;4971835;28;20531;-77
2021/03/08 08:21:18;;;;;;;14.93;12.43;;;;;;;;;;4971161;28;20844;-79
2021/03/08 08:23:56;;;;;;;14.30;12.87;;;;;;;;;;4970543;28;20956;-76
2021/03/08 08:26:22;;;;;;;17.03;13.17;;;;;;;;;;4969600;28;20435;-76
2021/03/08 08:28:48;;;;;;;14.80;12.97;;;;;;;;;;4970020;28;20482;-75
2021/03/08 08:31:15;;;;;;;19.10;12.23;;;;;;;;;;4969793;28;20498;-79
2021/03/08 08:33:41;;;;;;;13.63;12.03;;;;;;;;;;4967613;28;20524;-79
2021/03/08 08:36:08;;;;;;;16.70;11.67;;;;;;;;;;4963833;28;20467;-81
2021/03/08 08:38:34;;;;;;;16.07;13.13;;;;;;;;;;4963561;28;21226;-76
2021/03/08 08:41:16;;;;;;;13.97;11.80;;;;;;;;;;4968205;28;20484;-81
2021/03/08 08:43:42;;;;;;;13.27;11.97;;;;;;;;;;4966253;28;20567;-83
2021/03/08 08:46:25;;;;;;;13.57;12.13;;;;;;;;;;4965782;28;20484;-76
2021/03/08 08:49:04;;;;;;;13.73;12.33;;;;;;;;;;4963487;28;20491;-79
2021/03/08 08:51:49;;;;;;;13.20;11.80;;;;;;;;;;4966522;28;20446;-79
2021/03/08 08:54:27;;;;;;;15.13;12.47;;;;;;;;;;4967209;28;20527;-82
2021/03/08 08:56:53;;;;;;;16.10;12.97;;;;;;;;;;4967433;28;20480;-79
2021/03/08 08:59:20;;;;;;;16.20;14.23;;;;;;;;;;4969275;28;20513;-81
2021/03/08 09:01:46;;;;;;;16.73;14.73;;;;;;;;;;4951264;28;20469;-82
2021/03/08 09:04:15;;;;;;;14.70;13.20;;;;;;;;;;4968941;28;20449;-78
2021/03/08 09:06:51;;;;;;;14.70;13.10;;;;;;;;;;4968040;28;20450;-78
2021/03/08 09:09:20;;;;;;;16.33;14.43;;;;;;;;;;4968769;28;21018;-76
2021/03/08 09:11:56;;;;;;;14.37;12.93;;;;;;;;;;4968374;28;20430;-76
2021/03/08 09:17:40;;;;;;;14.57;13.10;;;;;;;;;;5450938;23;20975;-79
2021/03/08 09:20:27;;;;;;;15.30;12.00;;;;;;;;;;4963731;28;20453;-83
2021/03/08 09:22:55;;;;;;;15.20;13.60;;;;;;;;;;4852340;29;20912;-79
2021/03/08 09:25:23;;;;;;;13.30;11.80;;;;;;;;;;4849258;29;20896;-79
2021/03/08 09:28:00;;;;;;;13.07;11.87;;;;;;;;;;4853119;29;20994;-77
2021/03/08 09:30:28;;;;;;;13.80;12.23;;;;;;;;;;4851348;29;20519;-77
2021/03/08 09:32:58;;;;;;;16.90;12.40;;;;;;;;;;4850765;29;20551;-78
2021/03/08 09:35:25;;;;;;;14.13;11.03;;;;;;;;;;4851754;29;20514;-80
2021/03/08 09:37:55;;;;;;;14.30;12.30;;;;;;;;;;4852683;29;20451;-80
2021/03/08 09:40:25;;;;;;;14.07;12.73;;;;;;;;;;4852909;29;20487;-81
2021/03/08 09:42:51;;;;;;;12.53;11.23;;;;;;;;;;4852837;29;20459;-80
2021/03/08 09:45:19;;;;;;;13.43;12.00;;;;;;;;;;4852881;29;20582;-79
2021/03/08 09:47:46;;;;;;;13.13;11.93;;;;;;;;;;4851755;29;20539;-81
2021/03/08 09:50:17;;;;;;;14.20;12.70;;;;;;;;;;4851536;29;20487;-77
2021/03/08 09:52:44;;;;;;;13.27;11.97;;;;;;;;;;4853269;29;20463;-77
2021/03/08 09:55:11;;;;;;;13.23;11.83;;;;;;;;;;4852026;29;20462;-81
2021/03/08 09:57:41;;;;;;;13.13;12.03;;;;;;;;;;4852630;29;20460;-78
2021/03/08 10:00:11;;;;;;;14.10;12.60;;;;;;;;;;4898021;28;20454;-80
2021/03/08 10:02:37;;;;;;;12.17;11.07;;;;;;;;;;4950724;28;21174;-79
2021/03/08 10:05:04;;;;;;;12.77;11.57;;;;;;;;;;4950776;28;20561;-81
2021/03/08 10:07:30;;;;;;;18.10;11.50;;;;;;;;;;4967584;28;20497;-82
2021/03/08 10:10:08;;;;;;;11.80;10.60;;;;;;;;;;4968442;28;20991;-81
2021/03/08 10:12:34;;;;;;;11.97;10.87;;;;;;;;;;4967166;28;20468;-83
2021/03/08 10:15:01;;;;;;;12.83;11.73;;;;;;;;;;4968152;28;20599;-81
2021/03/08 10:17:28;;;;;;;13.10;11.90;;;;;;;;;;4967099;28;20444;-82
2021/03/08 10:19:55;;;;;;;10.70;9.60;;;;;;;;;;4951103;28;20957;-82
2021/03/08 10:22:40;;;;;;;10.73;9.63;;;;;;;;;;4969603;28;20440;-83
2021/03/08 10:25:26;;;;;;;11.27;10.27;;;;;;;;;;4968272;28;20442;-80
2021/03/08 10:27:56;;;;;;;10.60;9.80;;;;;;;;;;4969674;28;20876;-80
2021/03/08 10:30:23;;;;;;;11.83;10.73;;;;;;;;;;4969378;28;20453;-82
2021/03/08 10:32:51;;;;;;;11.13;10.13;;;;;;;;;;4967603;28;20533;-82
2021/03/08 10:35:17;;;;;;;14.00;12.77;;;;;;;;;;4967298;28;20441;-79
2021/03/08 10:37:44;;;;;;;11.40;10.27;;;;;;;;;;4967558;28;20445;-84
2021/03/08 10:40:10;;;;;;;11.90;10.70;;;;;;;;;;4968104;28;20451;-83
2021/03/08 10:42:37;;;;;;;11.33;10.23;;;;;;;;;;4950525;28;20530;-77
2021/03/08 10:45:05;;;;;;;11.03;10.00;;;;;;;;;;4967644;28;20472;-81
2021/03/08 10:47:31;;;;;;;12.60;11.40;;;;;;;;;;4965820;28;20945;-82
2021/03/08 10:49:57;;;;;;;10.10;9.27;;;;;;;;;;4968463;28;20469;-81
2021/03/08 10:52:23;;;;;;;11.60;10.50;;;;;;;;;;4952228;28;20470;-77
2021/03/08 10:54:49;;;;;;;10.83;9.83;;;;;;;;;;4971558;28;20457;-80
2021/03/08 10:57:15;;;;;;;11.53;10.40;;;;;;;;;;4953618;28;21027;-78
2021/03/08 10:59:48;;;;;;;11.67;10.40;;;;;;;;;;4971064;28;20449;-78
2021/03/08 11:02:16;;;;;;;11.40;10.33;;;;;;;;;;4971068;28;20441;-79
2021/03/08 11:04:42;;;;;;;10.37;9.47;;;;;;;;;;4970044;28;20521;-78
2021/03/08 11:07:08;;;;;;;10.63;9.63;;;;;;;;;;4954238;28;20442;-81
2021/03/08 11:09:36;;;;;;;9.93;8.93;;;;;;;;;;4971517;28;21054;-78
2021/03/08 11:12:03;;;;;;;9.50;8.60;;;;;;;;;;4970352;28;20492;-76
2021/03/08 11:14:29;;;;;;;8.77;8.07;;;;;;;;;;4971330;28;20445;-78
2021/03/08 11:16:57;;;;;;;9.63;8.80;;;;;;;;;;4971603;28;20537;-75
2021/03/08 11:19:27;;;;;;;10.40;9.40;;;;;;;;;;4977968;28;20477;-79
2021/03/08 11:22:07;;;;;;;10.40;9.60;;;;;;;;;;4985146;28;20431;-77
2021/03/08 11:24:47;;;;;;;10.57;9.73;;;;;;;;;;4982048;28;20480;-78
2021/03/08 11:27:21;;;;;;;11.13;10.13;;;;;;;;;;4982999;28;20495;-75
2021/03/08 11:30:06;;;;;;;9.73;9.00;;;;;;;;;;4982835;28;20482;-77
2021/03/08 11:32:32;;;;;;;10.97;10.07;;;;;;;;;;4970155;28;20442;-82
2021/03/08 11:34:58;;;;;;;10.90;9.80;;;;;;;;;;4972654;28;20450;-79
2021/03/08 11:37:26;;;;;;;10.70;9.80;;;;;;;;;;4973910;28;20505;-80
2021/03/08 11:39:53;;;;;;;12.10;10.90;;;;;;;;;;4974704;28;21065;-79
2021/03/08 11:42:20;;;;;;;10.47;9.57;;;;;;;;;;4973425;28;20796;-78
2021/03/08 11:44:46;;;;;;;11.90;10.20;;;;;;;;;;4973599;28;20446;-79
2021/03/08 11:47:13;;;;;;;11.60;10.60;;;;;;;;;;4972032;28;20442;-77
2021/03/08 11:49:39;;;;;;;12.03;10.93;;;;;;;;;;4967812;28;20578;-80
2021/03/08 11:52:06;;;;;;;10.50;9.50;;;;;;;;;;4971401;28;20439;-76
2021/03/08 11:54:32;;;;;;;11.03;10.03;;;;;;;;;;4974746;28;20439;-78
2021/03/08 11:56:59;;;;;;;10.17;9.37;;;;;;;;;;4975638;28;20426;-80
2021/03/08 11:59:25;;;;;;;10.10;8.30;;;;;;;;;;4971651;28;20451;-76
2021/03/08 12:01:51;;;;;;;10.10;9.20;;;;;;;;;;4978629;28;20927;-76
2021/03/08 12:04:18;;;;;;;10.70;9.70;;;;;;;;;;4961476;28;20533;-76
2021/03/08 12:06:44;;;;;;;9.50;8.70;;;;;;;;;;4976738;28;20478;-75
2021/03/08 12:09:10;;;;;;;11.97;10.87;;;;;;;;;;4978709;28;20484;-75
2021/03/08 12:11:36;;;;;;;10.03;9.13;;;;;;;;;;4977524;28;20836;-77
2021/03/08 12:14:02;;;;;;;10.60;9.60;;;;;;;;;;4976337;28;20452;-77
2021/03/08 12:16:28;;;;;;;12.60;9.87;;;;;;;;;;4979844;28;20441;-76
2021/03/08 12:18:54;;;;;;;10.73;9.70;;;;;;;;;;4978481;28;21028;-75
2021/03/08 12:21:20;;;;;;;10.40;9.40;;;;;;;;;;4976242;28;20504;-76
2021/03/08 12:23:47;;;;;;;9.97;9.07;;;;;;;;;;4973981;28;20936;-75
2021/03/08 12:26:14;;;;;;;10.43;9.13;;;;;;;;;;4972288;28;20529;-77
2021/03/08 12:28:40;;;;;;;11.07;10.10;;;;;;;;;;4973328;28;20493;-76
2021/03/08 12:31:06;;;;;;;9.60;8.70;;;;;;;;;;4972339;28;20443;-76
2021/03/08 12:33:37;;;;;;;10.20;9.30;;;;;;;;;;4972287;28;20508;-75
2021/03/08 12:36:03;;;;;;;11.83;10.73;;;;;;;;;;4972766;28;20904;-76
2021/03/08 12:38:29;;;;;;;11.20;10.20;;;;;;;;;;4954886;28;20949;-74
2021/03/08 12:40:55;;;;;;;10.97;9.53;;;;;;;;;;4972381;28;20457;-79
2021/03/08 12:43:21;;;;;;;11.00;10.10;;;;;;;;;;4974516;28;20908;-78
2021/03/08 12:45:47;;;;;;;11.87;10.67;;;;;;;;;;4973739;28;20520;-75
2021/03/08 12:48:13;;;;;;;13.80;9.97;;;;;;;;;;4973180;28;20640;-76
2021/03/08 12:50:39;;;;;;;10.20;9.20;;;;;;;;;;4971167;28;20457;-77
2021/03/08 12:53:05;;;;;;;10.00;9.10;;;;;;;;;;4972647;28;20442;-81
2021/03/08 12:55:31;;;;;;;10.57;9.70;;;;;;;;;;4971764;28;20532;-79
2021/03/08 12:57:57;;;;;;;10.60;9.80;;;;;;;;;;4971875;28;20439;-78
2021/03/08 13:00:23;;;;;;;10.43;9.63;;;;;;;;;;4971296;28;20449;-74
2021/03/08 13:02:50;;;;;;;10.83;10.00;;;;;;;;;;4973660;28;20455;-76
2021/03/08 13:05:16;;;;;;;10.13;9.33;;;;;;;;;;4954472;28;20504;-81
2021/03/08 13:07:42;;;;;;;10.57;9.60;;;;;;;;;;4972969;28;20839;-77
2021/03/08 13:10:08;;;;;;;11.10;9.30;;;;;;;;;;4956636;28;20489;-81
2021/03/08 13:12:34;;;;;;;10.23;9.43;;;;;;;;;;4975609;28;20449;-80
2021/03/08 13:15:00;;;;;;;10.40;9.50;;;;;;;;;;4973420;28;20446;-81
2021/03/08 13:17:26;;;;;;;10.43;9.53;;;;;;;;;;4969499;28;20449;-78
2021/03/08 13:19:52;;;;;;;10.30;9.40;;;;;;;;;;4972066;28;20465;-80
2021/03/08 13:22:18;;;;;;;10.57;9.30;;;;;;;;;;4974225;28;21016;-82
2021/03/08 13:24:44;;;;;;;11.87;10.50;;;;;;;;;;4973856;28;20454;-80
2021/03/08 13:27:10;;;;;;;10.77;9.87;;;;;;;;;;4971960;28;20509;-78
2021/03/08 13:29:37;;;;;;;11.30;10.30;;;;;;;;;;4971586;28;20549;-78
2021/03/08 13:32:04;;;;;;;11.43;10.33;;;;;;;;;;4973897;28;20501;-81
2021/03/08 13:34:30;;;;;;;10.80;9.90;;;;;;;;;;4969973;28;20864;-80
2021/03/08 13:36:56;;;;;;;12.17;10.07;;;;;;;;;;4970688;28;20500;-82
2021/03/08 13:39:22;;;;;;;10.03;9.13;;;;;;;;;;4970788;28;20778;-79
2021/03/08 13:41:49;;;;;;;10.20;9.40;;;;;;;;;;4956301;28;20453;-77
2021/03/08 13:44:15;;;;;;;11.77;10.77;;;;;;;;;;4940344;28;21004;-81
2021/03/08 13:46:41;;;;;;;11.70;10.20;;;;;;;;;;4974966;28;20447;-86
2021/03/08 13:49:07;;;;;;;10.70;9.80;;;;;;;;;;4970738;28;20552;-84
2021/03/08 13:51:34;;;;;;;10.73;9.83;;;;;;;;;;4970889;28;20928;-77
2021/03/08 13:54:00;;;;;;;11.40;10.50;;;;;;;;;;4978742;28;20469;-84
2021/03/08 13:56:26;;;;;;;10.13;9.33;;;;;;;;;;4974290;28;20971;-77
2021/03/08 13:58:52;;;;;;;10.87;9.97;;;;;;;;;;4971270;28;20454;-77
2021/03/08 14:01:18;;;;;;;11.57;10.40;;;;;;;;;;4967006;28;20426;-77
2021/03/08 14:03:44;;;;;;;10.73;9.70;;;;;;;;;;4973744;28;20796;-79
2021/03/08 14:06:11;;;;;;;10.47;9.47;;;;;;;;;;4970676;28;20422;-78
2021/03/08 14:08:37;;;;;;;11.13;10.13;;;;;;;;;;4970622;28;20620;-79
2021/03/08 14:11:03;;;;;;;12.90;9.90;;;;;;;;;;4969828;28;20442;-78
2021/03/08 14:13:29;;;;;;;11.33;10.27;;;;;;;;;;4972918;28;20823;-81
2021/03/08 14:15:58;;;;;;;10.80;9.80;;;;;;;;;;4970346;28;20878;-76
2021/03/08 14:18:24;;;;;;;11.10;10.13;;;;;;;;;;4973219;28;20996;-75
2021/03/08 14:20:51;;;;;;;10.03;9.10;;;;;;;;;;4971974;28;20459;-77
2021/03/08 14:23:16;;;;;;;12.33;11.27;;;;;;;;;;4970954;28;20453;-76
2021/03/08 14:25:43;;;;;;;11.23;10.30;;;;;;;;;;4973165;28;20446;-76
2021/03/08 14:28:09;;;;;;;10.37;9.37;;;;;;;;;;4976711;28;21060;-76
2021/03/08 14:30:43;;;;;;;10.87;9.87;;;;;;;;;;4976109;28;20534;-80
2021/03/08 14:33:09;;;;;;;10.60;9.40;;;;;;;;;;4978012;28;20984;-78
2021/03/08 14:35:35;;;;;;;11.30;9.23;;;;;;;;;;4962225;28;20488;-77